METAR Data
IDs: Format: Raw Decoded Include TAF

Data at: 1108 UTC 16 Feb 2019

PFYU 161056Z AUTO 05004KT 10SM CLR M29/M32 A3029 RMK AO2 SLP287 T12941317 FZRANO
PFYU 160956Z AUTO 00000KT 10SM CLR M28/M31 A3031 RMK AO2 SLP293 T12831311 FZRANO
PFYU 160856Z AUTO 00000KT 10SM FEW005 M27/M30 A3032 RMK AO2 SLP296 T12721300 411941272 53001 FZRANO
PFYU 160852Z AUTO 00000KT 10SM FEW005 M27/M30 A3032 RMK AO2 411941272 FZRANO
PFYU 160756Z AUTO 03003KT 10SM CLR M26/M28 A3032 RMK AO2 SLP294 T12611283 FZRANO
PFYU 160718Z AUTO 02004KT 10SM SCT009 M24/M27 A3032 RMK AO2 FZRANO
PFYU 160706Z AUTO 02004KT 10SM BKN009 M23/M26 A3032 RMK AO2 FZRANO
PFYU 160656Z AUTO 04003KT 10SM OVC011 M22/M26 A3032 RMK AO2 SLP296 T12221256 FZRANO
PFYU 160556Z AUTO 04004KT 10SM OVC011 M21/M24 A3032 RMK AO2 SNE02 SLP295 P0000 60000 T12061239 11206 21222 55000 FZRANO
PFYU 160456Z AUTO 02003KT 9SM -SN OVC011 M21/M23 A3032 RMK AO2 SNB51 SLP296 P0000 T12061233 FZRANO
PFYU 160356Z 05003KT 10SM OVC013 M21/M24 A3031 RMK AO2 SLP293 T12111239
PFYU 160336Z 00000KT 10SM OVC013 M22/M24 A3031 RMK AO2
PFYU 160256Z 06003KT 10SM OVC015 M22/M24 A3032 RMK AO2 SNB01E10 SLP296 P0000 60000 T12171244 58001
PFYU 160242Z 00000KT 10SM OVC015 M22/M24 A3033 RMK AO2 SNB01E10 P0000
PFYU 160156Z 00000KT 10SM OVC011 M22/M24 A3033 RMK AO2 SNB08E21 SLP297 P0000 T12171244
PFYU 160056Z 07003KT 10SM SCT011 M22/M25 A3031 RMK AO2 SLP296 T12171250 $
PFYU 152356Z 03003KT 10SM CLR M21/M24 A3032 RMK AO2 SLP296 6//// T12111244 11194 21267 50004
PFYU 152256Z 00000KT 10SM CLR M19/M24 A3033 RMK AO2 SLP297 T11941239
PFYU 152156Z 00000KT 10SM CLR M22/M25 A3032 RMK AO2 SLP295 T12171250
PFYU 152056Z 04003KT 10SM CLR M23/M27 A3031 RMK AO2 SLP292 6//// T12331267 51008
PFYU 151956Z 05005KT 10SM SCT005 M26/M28 A3030 RMK AO2 SLP290 T12561283
PFYU 151912Z 00000KT 10SM SCT005 M26/M29 A3031 RMK AO2
PFYU 151856Z 03003KT 10SM OVC005 M26/M29 A3030 RMK AO2 SLP289 T12611289
PFYU 151756Z 06003KT 10SM OVC005 M26/M28 A3029 RMK AO2 SLP284 6//// T12611283 11244 21267 53007
PFYU 151656Z 05003KT 9SM OVC005 M26/M28 A3028 RMK AO2 SLP281 T12611283
PFYU 151603Z 05003KT 10SM OVC005 M26/M28 A3028 RMK AO2
PFYU 151556Z 05004KT 10SM FEW005 M26/M28 A3028 RMK AO2 SLP280 T12611283
PFYU 151508Z 04003KT 10SM FEW005 M26/M29 A3027 RMK AO2
PFYU 151456Z AUTO 00000KT 10SM OVC005 M26/M29 A3027 RMK AO2 SLP277 6//// T12611289 53006 FZRANO
PFYU 151429Z AUTO 04003KT 10SM BKN005 M26/M28 A3026 RMK AO2 FZRANO
PFYU 151407Z AUTO 04004KT 10SM FEW005 M26/M28 A3026 RMK AO2 FZRANO
PFYU 151356Z AUTO 03004KT 10SM CLR M26/M28 A3026 RMK AO2 SLP273 T12561283 FZRANO
PFYU 151256Z AUTO 04004KT 10SM CLR M25/M27 A3025 RMK AO2 SLP271 T12501272 FZRANO
PFYU 151156Z AUTO 03003KT 10SM CLR M24/M26 A3025 RMK AO2 SLP271 60000 T12441261 11178 21244 53006 FZRANO
PFYU 151056Z AUTO 03003KT 10SM CLR M24/M26 A3024 RMK AO2 SLP268 T12391256 FZRANO
PFYU 150956Z AUTO 04004KT 10SM CLR M23/M24 A3023 RMK AO2 SLP265 T12281244 FZRANO
PFYU 150856Z AUTO 04004KT 10SM CLR M22/M24 A3023 RMK AO2 SLP264 60000 T12221239 411671222 57008 FZRANO
PFYU 150756Z AUTO 03003KT 10SM CLR M21/M23 A3024 RMK AO2 SLP267 T12061233 FZRANO
PFYU 150656Z AUTO 04004KT 10SM OVC040 M18/M21 A3024 RMK AO2 SNE02 SLP269 P0000 T11831211 FZRANO
PFYU 150556Z AUTO 05004KT 10SM -SN OVC040 M18/M21 A3025 RMK AO2 SNB12E34B52 SLP272 P0000 60000 T11781206 11167 21178 58012 FZRANO
PFYU 150456Z AUTO 05004KT 10SM OVC042 M18/M21 A3027 RMK AO2 SLP277 T11781206 FZRANO
PFYU 150356Z 03005KT 10SM OVC042 M18/M21 A3028 RMK AO2 SLP280 T11781206
PFYU 150256Z 05006KT 10SM OVC040 M18/M21 A3029 RMK AO2 SNB29E40 SLP283 P0000 60000 T11781206 58011
PFYU 150156Z 05005KT 10SM OVC040 M17/M21 A3031 RMK AO2 SNB06E20 SLP289 P0000 T11721206
PFYU 150056Z 03007KT 10SM OVC040 M17/M21 A3031 RMK AO2 SNE25 SLP289 P0000 T11721206
PFYU 142356Z 03006KT 9SM -SN OVC042 M17/M20 A3032 RMK AO2 SNB40 SLP295 P0000 60000 T11671200 11167 21189 58013